Strona główna
METAR-TAF:

METAR-TAF

Lotnisko :

Pattani, Tajlandia

Szerokość geograficzna: 06-47-08N, Długość geograficzna: 101-09-13E, wysokość: 2 m

METAR: brakujący

czas: 08:02 (01:02 UTC)

Prognoza

Raport powstał 2 godziny i 2 minut temu, godzina 23:00 UTC
Prognoza ważna od 26 godzina 00 UTC do 26 godzina 24 UTC
Wiatr 8 kt od zachodnio-północny zachód
Widzialność 10 km lub więcej
Mało chmury na wysokości 2000 ft
Przejściowo
od 26 godzina 06 UTC do 26 godzina 12 UTC
Wiatr 10 kt od zachodnio-północny zachód w porywach dochodzący do 20 kt
Widzialność: 5000 m
Mało chmury na wysokości 1600 ft, Cumulonimbus.
Rozproszone chmury na wysokości 1800 ft
Przerywane chmury na wysokości 10000 ft
burza, deszcz

TAF: VTSK 252300Z 2600/2624 29008KT 9999 FEW020 TEMPO 2606/2612 29010G20KT 5000 TSRA FEW016CB SCT018 BKN100

Obserwacja i prognoza pogody dla ponad 4000 lotnisk (raport METAR i TAF).

Dostępne stacje oznaczono żółtymi i czerwonymi punktami na mapie.

Najedź kursorem aby zobaczyć nazwę stacji.

Kliknij aby zobaczyć obserwacje i prognozy pogody.

Aby zmienić mapę: kliknij na zielony przycisk z czarnym krzyżykiem, aby powiększyć; na zielony przycisk z myślnikiem, aby pomniejszyć; na zielone strzałki, aby przejść do map sąsiednich.


METAR-TAF: